Independence — WDD6659 — position and weather

sailwx.info

Track history (hours):
 
Tides and Currents Weather Stations Pressure Air Temp Water Temp Dewpoint Dewpoint Depression Visibility Wind Speed Wind Dir Waves Ship Positions

Independence

Owner: Sortwell, Inc. DBA AmNav Maritime Services, Oakland, CA. More information available from US FCC via Universal Licensing System and Coast Guard Vessel Documentation Center.

Last reported at 2014-Nov-26 07:32 UTC. Time now 2014-Nov-26 08:52 UTC.
Position N 33°44' W 118°17'.

Length 24 m; draft 4.9 m.

Type: Tug. MMSI: 367175860.

Date/timePositionNaut miles runAvg speedWind from/ knotsBaromVisibWave heightAir tempDewpointWater temp
2014-Nov-26 07:32N 33°44' W 118°17'0 0.0
2014-Nov-26 06:33N 33°44' W 118°17'0 0.0
2014-Nov-26 05:33N 33°44' W 118°17'0 0.0
2014-Nov-26 04:32N 33°44' W 118°17'0 0.1
2014-Nov-25 23:25N 33°44' W 118°17'0 0.1
2014-Nov-25 17:33N 33°44' W 118°17'3 0.2
2014-Nov-25 01:19N 33°44' W 118°12'0 0.6
2014-Nov-25 00:33N 33°45' W 118°12'1 1.2
2014-Nov-24 23:33N 33°44' W 118°11'2 2.1
2014-Nov-24 22:33N 33°45' W 118°13'1 1.4
2014-Nov-24 21:31N 33°44' W 118°13'3 0.5
2014-Nov-24 16:12N 33°44' W 118°17'0 0.0
2014-Nov-24 15:33N 33°44' W 118°17'1 0.3
2014-Nov-24 13:34N 33°43' W 118°16'1 0.5
2014-Nov-24 12:33N 33°43' W 118°16'1 1.1
2014-Nov-24 11:33N 33°44' W 118°17'3 0.2
2014-Nov-23 21:32N 33°44' W 118°13'1 0.9
2014-Nov-23 20:33N 33°44' W 118°12'1 1.3
2014-Nov-23 19:33N 33°43' W 118°13'3 0.1
2014-Nov-23 01:32N 33°44' W 118°17'0 0.0
2014-Nov-23 00:26N 33°44' W 118°17'0 0.0
2014-Nov-22 23:33N 33°44' W 118°17'0 0.0
2014-Nov-22 22:33N 33°44' W 118°17'0 0.0
2014-Nov-22 21:33N 33°44' W 118°17'1 0.2
2014-Nov-22 14:17N 33°45' W 118°16'2 2.9
2014-Nov-22 13:33N 33°46' W 118°14'1 1.3
2014-Nov-22 12:33N 33°45' W 118°13'0 0.4
2014-Nov-22 11:33N 33°45' W 118°13'0 0.1
2014-Nov-22 06:33N 33°45' W 118°13'0 0.0
2014-Nov-22 05:25N 33°45' W 118°13'1 0.8
2014-Nov-22 04:32N 33°45' W 118°13'1 0.1
2014-Nov-21 21:33N 33°44' W 118°12'1 0.5
2014-Nov-21 20:34N 33°44' W 118°12'2 2.1
2014-Nov-21 19:33N 33°46' W 118°13'0 0.4
2014-Nov-21 18:33N 33°46' W 118°13'3 0.1
2014-Nov-20 03:27N 33°44' W 118°17'0 0.0
2014-Nov-20 02:32N 33°44' W 118°17'0 0.0
2014-Nov-20 01:32N 33°44' W 118°17'0 0.0
2014-Nov-19 21:33N 33°44' W 118°17'0 0.0
2014-Nov-19 20:29N 33°44' W 118°17'0 0.0
2014-Nov-19 10:32N 33°44' W 118°17'0 0.0
2014-Nov-19 08:31N 33°44' W 118°17'0 0.0
2014-Nov-19 07:27N 33°44' W 118°17'0 0.0
2014-Nov-19 06:31N 33°44' W 118°17'0 0.0
2014-Nov-19 04:33N 33°44' W 118°17'0 0.0
2014-Nov-19 03:30N 33°44' W 118°17'0 0.0
2014-Nov-19 02:30N 33°44' W 118°17'0 0.5
2014-Nov-19 01:34N 33°43' W 118°16'3 3.4
2014-Nov-19 00:33N 33°45' W 118°12'2 2.0
2014-Nov-18 23:34N 33°44' W 118°10'2 1.8
2014-Nov-18 22:33N 33°44' W 118°12'3 3.2
2014-Nov-18 21:33N 33°45' W 118°16'1 1.2
2014-Nov-18 20:33N 33°46' W 118°15'2 0.6
2014-Nov-18 16:32N 33°44' W 118°17'0 0.0
2014-Nov-18 15:33N 33°44' W 118°17'0 0.0
2014-Nov-18 13:24N 33°44' W 118°17'0 0.0
2014-Nov-18 12:05N 33°44' W 118°17'0 0.0
2014-Nov-18 11:31N 33°44' W 118°17'0 0.0
2014-Nov-18 09:31N 33°44' W 118°17'0 0.0
2014-Nov-18 08:33N 33°44' W 118°17'0 0.0
2014-Nov-18 07:15N 33°44' W 118°17'0 0.0
2014-Nov-18 06:21N 33°44' W 118°17'0 0.0
2014-Nov-18 05:33N 33°44' W 118°17'0 0.0
2014-Nov-18 04:33N 33°44' W 118°17'0 0.0
2014-Nov-18 03:32N 33°44' W 118°17'0 0.0
2014-Nov-18 02:33N 33°44' W 118°17'0 0.0
2014-Nov-18 01:33N 33°44' W 118°17'0 0.0
2014-Nov-18 00:33N 33°44' W 118°17'0 0.0
2014-Nov-17 23:30N 33°44' W 118°17'0 0.0
2014-Nov-17 20:33N 33°44' W 118°17'  
Track history (hours):
 
Tides and Currents Weather Stations Pressure Air Temp Water Temp Dewpoint Dewpoint Depression Visibility Wind Speed Wind Dir Waves Ship Positions

Independence

Owner: Sortwell, Inc. DBA AmNav Maritime Services, Oakland, CA. More information available from US FCC via Universal Licensing System and Coast Guard Vessel Documentation Center.

Last reported at 2014-Nov-26 07:32 UTC. Time now 2014-Nov-26 08:52 UTC.
Position N 33°44' W 118°17'.

Length 24 m; draft 4.9 m.

Type: Tug. MMSI: 367175860.

Date/timePositionNaut miles runAvg speedWind from/ knotsBaromVisibWave heightAir tempDewpointWater temp
2014-Nov-26 07:32N 33°44' W 118°17'0 0.0
2014-Nov-26 06:33N 33°44' W 118°17'0 0.0
2014-Nov-26 05:33N 33°44' W 118°17'0 0.0
2014-Nov-26 04:32N 33°44' W 118°17'0 0.1
2014-Nov-25 23:25N 33°44' W 118°17'0 0.1
2014-Nov-25 17:33N 33°44' W 118°17'3 0.2
2014-Nov-25 01:19N 33°44' W 118°12'0 0.6
2014-Nov-25 00:33N 33°45' W 118°12'1 1.2
2014-Nov-24 23:33N 33°44' W 118°11'2 2.1
2014-Nov-24 22:33N 33°45' W 118°13'1 1.4
2014-Nov-24 21:31N 33°44' W 118°13'3 0.5
2014-Nov-24 16:12N 33°44' W 118°17'0 0.0
2014-Nov-24 15:33N 33°44' W 118°17'1 0.3
2014-Nov-24 13:34N 33°43' W 118°16'1 0.5
2014-Nov-24 12:33N 33°43' W 118°16'1 1.1
2014-Nov-24 11:33N 33°44' W 118°17'3 0.2
2014-Nov-23 21:32N 33°44' W 118°13'1 0.9
2014-Nov-23 20:33N 33°44' W 118°12'1 1.3
2014-Nov-23 19:33N 33°43' W 118°13'3 0.1
2014-Nov-23 01:32N 33°44' W 118°17'0 0.0
2014-Nov-23 00:26N 33°44' W 118°17'0 0.0
2014-Nov-22 23:33N 33°44' W 118°17'0 0.0
2014-Nov-22 22:33N 33°44' W 118°17'0 0.0
2014-Nov-22 21:33N 33°44' W 118°17'1 0.2
2014-Nov-22 14:17N 33°45' W 118°16'2 2.9
2014-Nov-22 13:33N 33°46' W 118°14'1 1.3
2014-Nov-22 12:33N 33°45' W 118°13'0 0.4
2014-Nov-22 11:33N 33°45' W 118°13'0 0.1
2014-Nov-22 06:33N 33°45' W 118°13'0 0.0
2014-Nov-22 05:25N 33°45' W 118°13'1 0.8
2014-Nov-22 04:32N 33°45' W 118°13'1 0.1
2014-Nov-21 21:33N 33°44' W 118°12'1 0.5
2014-Nov-21 20:34N 33°44' W 118°12'2 2.1
2014-Nov-21 19:33N 33°46' W 118°13'0 0.4
2014-Nov-21 18:33N 33°46' W 118°13'3 0.1
2014-Nov-20 03:27N 33°44' W 118°17'0 0.0
2014-Nov-20 02:32N 33°44' W 118°17'0 0.0
2014-Nov-20 01:32N 33°44' W 118°17'0 0.0
2014-Nov-19 21:33N 33°44' W 118°17'0 0.0
2014-Nov-19 20:29N 33°44' W 118°17'0 0.0
2014-Nov-19 10:32N 33°44' W 118°17'0 0.0
2014-Nov-19 08:31N 33°44' W 118°17'0 0.0
2014-Nov-19 07:27N 33°44' W 118°17'0 0.0
2014-Nov-19 06:31N 33°44' W 118°17'0 0.0
2014-Nov-19 04:33N 33°44' W 118°17'0 0.0
2014-Nov-19 03:30N 33°44' W 118°17'0 0.0
2014-Nov-19 02:30N 33°44' W 118°17'0 0.5
2014-Nov-19 01:34N 33°43' W 118°16'3 3.4
2014-Nov-19 00:33N 33°45' W 118°12'2 2.0
2014-Nov-18 23:34N 33°44' W 118°10'2 1.8
2014-Nov-18 22:33N 33°44' W 118°12'3 3.2
2014-Nov-18 21:33N 33°45' W 118°16'1 1.2
2014-Nov-18 20:33N 33°46' W 118°15'2 0.6
2014-Nov-18 16:32N 33°44' W 118°17'0 0.0
2014-Nov-18 15:33N 33°44' W 118°17'0 0.0
2014-Nov-18 13:24N 33°44' W 118°17'0 0.0
2014-Nov-18 12:05N 33°44' W 118°17'0 0.0
2014-Nov-18 11:31N 33°44' W 118°17'0 0.0
2014-Nov-18 09:31N 33°44' W 118°17'0 0.0
2014-Nov-18 08:33N 33°44' W 118°17'0 0.0
2014-Nov-18 07:15N 33°44' W 118°17'0 0.0
2014-Nov-18 06:21N 33°44' W 118°17'0 0.0
2014-Nov-18 05:33N 33°44' W 118°17'0 0.0
2014-Nov-18 04:33N 33°44' W 118°17'0 0.0
2014-Nov-18 03:32N 33°44' W 118°17'0 0.0
2014-Nov-18 02:33N 33°44' W 118°17'0 0.0
2014-Nov-18 01:33N 33°44' W 118°17'0 0.0
2014-Nov-18 00:33N 33°44' W 118°17'0 0.0
2014-Nov-17 23:30N 33°44' W 118°17'0 0.0
2014-Nov-17 20:33N 33°44' W 118°17'  

Dump ship's entire track history